Time;durP1;ratioP1;P1;durP2;ratioP2;P2;SDS_P1;SDS_P2;PMS_P1;PMS_P2;Temp;Humidity;BMP_temperature;BMP_pressure;BME280_temperature;BME280_humidity;BME280_pressure;Samples;Min_cycle;Max_cycle;Signal;HPM_P1;HPM_P2
2022/09/28 00:00:53;;;;;;;6.60;2.00;;;;;;;;;;5096396;28;20591;-80
2022/09/28 00:03:19;;;;;;;1.97;1.70;;;;;;;;;;5096706;28;20445;-80
2022/09/28 00:05:45;;;;;;;3.90;2.17;;;;;;;;;;5095622;28;20463;-80
2022/09/28 00:08:11;;;;;;;8.33;1.90;;;;;;;;;;5096456;28;20505;-81
2022/09/28 00:10:38;;;;;;;6.40;2.27;;;;;;;;;;5096715;28;20504;-79
2022/09/28 00:13:05;;;;;;;4.33;1.67;;;;;;;;;;5096695;28;20425;-81
2022/09/28 00:15:32;;;;;;;6.10;1.80;;;;;;;;;;5096363;28;20795;-81
2022/09/28 00:17:58;;;;;;;9.50;2.20;;;;;;;;;;5096344;28;20421;-81
2022/09/28 00:20:24;;;;;;;8.17;1.80;;;;;;;;;;5096135;28;20867;-80
2022/09/28 00:22:50;;;;;;;5.70;2.07;;;;;;;;;;5095953;28;20393;-77
2022/09/28 00:25:16;;;;;;;4.93;1.97;;;;;;;;;;5096220;28;20413;-80
2022/09/28 00:27:42;;;;;;;9.50;2.30;;;;;;;;;;5096127;28;20459;-80
2022/09/28 00:30:08;;;;;;;7.37;2.20;;;;;;;;;;5096062;28;20431;-79
2022/09/28 00:32:34;;;;;;;7.07;2.03;;;;;;;;;;5095950;28;20401;-82
2022/09/28 00:35:00;;;;;;;3.60;1.63;;;;;;;;;;5094544;28;20410;-80
2022/09/28 00:37:26;;;;;;;4.70;1.97;;;;;;;;;;5096129;28;20393;-84
2022/09/28 00:39:52;;;;;;;2.40;1.83;;;;;;;;;;5095846;28;20465;-82
2022/09/28 00:42:18;;;;;;;4.07;1.70;;;;;;;;;;5095818;28;20781;-78
2022/09/28 00:44:47;;;;;;;4.20;2.13;;;;;;;;;;5095758;28;20798;-81
2022/09/28 00:47:13;;;;;;;7.03;1.73;;;;;;;;;;5095660;28;20486;-78
2022/09/28 00:49:43;;;;;;;4.40;2.17;;;;;;;;;;5094347;28;20465;-79
2022/09/28 00:52:11;;;;;;;9.23;2.03;;;;;;;;;;5095604;28;20405;-78
2022/09/28 00:54:37;;;;;;;2.50;1.30;;;;;;;;;;5094087;28;20471;-82
2022/09/28 00:57:03;;;;;;;10.13;1.60;;;;;;;;;;5094108;28;20508;-78
2022/09/28 00:59:31;;;;;;;3.93;1.73;;;;;;;;;;5095422;28;21107;-80
2022/09/28 01:01:57;;;;;;;4.53;1.70;;;;;;;;;;5094106;28;20449;-80
2022/09/28 01:04:23;;;;;;;4.20;1.70;;;;;;;;;;5095466;28;20975;-79
2022/09/28 01:06:49;;;;;;;3.30;1.53;;;;;;;;;;5094051;28;20486;-81
2022/09/28 01:09:16;;;;;;;6.90;1.73;;;;;;;;;;5095353;28;20908;-80
2022/09/28 01:11:42;;;;;;;3.70;1.37;;;;;;;;;;5095210;28;20412;-81
2022/09/28 01:14:10;;;;;;;3.93;1.57;;;;;;;;;;5095162;28;20444;-79
2022/09/28 01:16:37;;;;;;;6.40;1.87;;;;;;;;;;5095064;28;20416;-80
2022/09/28 01:19:21;;;;;;;4.50;1.77;;;;;;;;;;5094980;28;20499;-77
2022/09/28 01:21:47;;;;;;;2.53;1.43;;;;;;;;;;5095034;28;20401;-81
2022/09/28 01:24:32;;;;;;;5.77;1.90;;;;;;;;;;5093636;28;20427;-80
2022/09/28 01:27:15;;;;;;;7.63;2.07;;;;;;;;;;5094939;28;20401;-76
2022/09/28 01:29:41;;;;;;;2.57;1.60;;;;;;;;;;5094866;28;20424;-79
2022/09/28 01:32:12;;;;;;;5.17;1.70;;;;;;;;;;5094739;28;20405;-76
2022/09/28 01:34:54;;;;;;;4.83;1.33;;;;;;;;;;5094010;28;20471;-79
2022/09/28 01:37:21;;;;;;;2.40;1.73;;;;;;;;;;5094748;28;20400;-81
2022/09/28 01:39:49;;;;;;;1.43;1.20;;;;;;;;;;5094550;28;20987;-80
2022/09/28 01:42:35;;;;;;;7.13;1.90;;;;;;;;;;5093302;28;20413;-80
2022/09/28 01:45:04;;;;;;;5.87;1.93;;;;;;;;;;5094604;28;20397;-80
2022/09/28 01:47:32;;;;;;;5.70;1.87;;;;;;;;;;5094578;28;20508;-80
2022/09/28 01:50:02;;;;;;;1.13;1.10;;;;;;;;;;5094474;28;20412;-80
2022/09/28 01:52:39;;;;;;;1.77;1.20;;;;;;;;;;5093197;28;20989;-80
2022/09/28 01:55:09;;;;;;;3.07;1.40;;;;;;;;;;5094333;28;20878;-82
2022/09/28 01:57:40;;;;;;;4.37;1.70;;;;;;;;;;5094307;28;20443;-80
2022/09/28 02:00:07;;;;;;;4.20;1.53;;;;;;;;;;5094258;28;20468;-79
2022/09/28 02:02:37;;;;;;;1.33;1.10;;;;;;;;;;5092965;28;20444;-80
2022/09/28 02:05:32;;;;;;;1.60;1.27;;;;;;;;;;5094189;28;20445;-79
2022/09/28 02:08:05;;;;;;;5.13;1.37;;;;;;;;;;5081029;28;20425;-81
2022/09/28 02:10:41;;;;;;;1.83;1.00;;;;;;;;;;5094069;28;20400;-77
2022/09/28 02:13:30;;;;;;;1.53;1.10;;;;;;;;;;5094005;28;20450;-80
2022/09/28 02:16:05;;;;;;;2.37;0.90;;;;;;;;;;5086018;28;20504;-79
2022/09/28 02:18:31;;;;;;;4.77;1.33;;;;;;;;;;5094190;28;20409;-78
2022/09/28 02:21:04;;;;;;;1.07;1.07;;;;;;;;;;5093846;28;20592;-79
2022/09/28 02:23:33;;;;;;;1.37;1.23;;;;;;;;;;5092572;28;20804;-80
2022/09/28 02:26:06;;;;;;;3.73;1.37;;;;;;;;;;5092887;28;20785;-80
2022/09/28 02:28:32;;;;;;;2.10;1.27;;;;;;;;;;5092519;28;20515;-80
2022/09/28 02:30:58;;;;;;;6.30;1.60;;;;;;;;;;5093875;28;20413;-81
2022/09/28 02:33:28;;;;;;;3.33;1.47;;;;;;;;;;5093697;28;20416;-81
2022/09/28 02:35:55;;;;;;;1.27;0.93;;;;;;;;;;5093725;28;20401;-79
2022/09/28 02:38:21;;;;;;;6.53;0.77;;;;;;;;;;5093786;28;20411;-82
2022/09/28 02:40:56;;;;;;;3.63;1.33;;;;;;;;;;5092408;28;20473;-78
2022/09/28 02:43:31;;;;;;;2.20;1.03;;;;;;;;;;5092393;28;20421;-80
2022/09/28 02:46:18;;;;;;;1.37;1.27;;;;;;;;;;5093583;28;20409;-82
2022/09/28 02:48:47;;;;;;;0.90;0.77;;;;;;;;;;5093809;28;20738;-81
2022/09/28 02:51:13;;;;;;;1.10;1.00;;;;;;;;;;5093556;28;20488;-81
2022/09/28 02:53:44;;;;;;;2.67;1.00;;;;;;;;;;5093574;28;20444;-81
2022/09/28 02:56:20;;;;;;;0.80;0.80;;;;;;;;;;5093496;28;20534;-81
2022/09/28 02:58:55;;;;;;;0.90;0.90;;;;;;;;;;5093342;28;20420;-79
2022/09/28 03:01:40;;;;;;;1.23;1.03;;;;;;;;;;5092205;28;20419;-81
2022/09/28 03:04:11;;;;;;;1.37;0.80;;;;;;;;;;5092221;28;20405;-80
2022/09/28 03:06:41;;;;;;;0.67;0.60;;;;;;;;;;5093429;28;20405;-81
2022/09/28 03:09:07;;;;;;;1.13;0.93;;;;;;;;;;5092389;28;20978;-81
2022/09/28 03:11:36;;;;;;;1.57;0.83;;;;;;;;;;5093463;28;20458;-82
2022/09/28 03:14:02;;;;;;;0.80;0.67;;;;;;;;;;5091992;28;20423;-79
2022/09/28 03:16:30;;;;;;;0.80;0.80;;;;;;;;;;5093331;28;20488;-81
2022/09/28 03:18:56;;;;;;;0.83;0.83;;;;;;;;;;5091937;28;20855;-80
2022/09/28 03:21:22;;;;;;;0.80;0.80;;;;;;;;;;5093504;28;20421;-83
2022/09/28 03:23:48;;;;;;;2.10;0.70;;;;;;;;;;5093438;28;20409;-81
2022/09/28 03:26:15;;;;;;;1.90;0.80;;;;;;;;;;5092037;28;20429;-82
2022/09/28 03:28:41;;;;;;;0.87;0.50;;;;;;;;;;5091962;28;20494;-81
2022/09/28 03:31:07;;;;;;;2.53;0.63;;;;;;;;;;5093266;28;20405;-81
2022/09/28 03:33:33;;;;;;;0.70;0.70;;;;;;;;;;5093238;28;20777;-83
2022/09/28 03:35:59;;;;;;;0.50;0.50;;;;;;;;;;5093170;28;20957;-81
2022/09/28 03:38:25;;;;;;;0.67;0.57;;;;;;;;;;5093163;28;20458;-83
2022/09/28 03:40:52;;;;;;;2.20;0.80;;;;;;;;;;5093075;28;20472;-78
2022/09/28 03:43:18;;;;;;;1.57;0.80;;;;;;;;;;5093102;28;20413;-81
2022/09/28 03:45:50;;;;;;;0.60;0.60;;;;;;;;;;5093177;28;20900;-79
2022/09/28 03:48:16;;;;;;;1.80;0.90;;;;;;;;;;5093172;28;20772;-81
2022/09/28 03:50:42;;;;;;;1.03;0.70;;;;;;;;;;5093027;28;20405;-81
2022/09/28 03:53:08;;;;;;;1.33;0.77;;;;;;;;;;5093017;28;20801;-82
2022/09/28 03:55:34;;;;;;;0.87;0.87;;;;;;;;;;5092854;28;20975;-79
2022/09/28 03:58:00;;;;;;;2.30;0.90;;;;;;;;;;5093728;28;20449;-80
2022/09/28 04:00:26;;;;;;;0.80;0.80;;;;;;;;;;5096545;28;20613;-82
2022/09/28 04:02:53;;;;;;;0.70;0.70;;;;;;;;;;5096470;28;20401;-78
2022/09/28 04:05:19;;;;;;;1.83;1.00;;;;;;;;;;5096580;28;20504;-81
2022/09/28 04:07:45;;;;;;;1.50;0.90;;;;;;;;;;5096526;28;20402;-82
2022/09/28 04:10:11;;;;;;;0.70;0.70;;;;;;;;;;5096468;28;20402;-81
2022/09/28 04:12:36;;;;;;;7.33;1.00;;;;;;;;;;5095078;28;20817;-82
2022/09/28 04:15:03;;;;;;;0.93;0.73;;;;;;;;;;5094996;28;20512;-84
2022/09/28 04:17:29;;;;;;;1.23;0.70;;;;;;;;;;5096284;28;20417;-82
2022/09/28 04:19:55;;;;;;;0.90;0.90;;;;;;;;;;5096235;28;20464;-80
2022/09/28 04:22:22;;;;;;;0.60;0.60;;;;;;;;;;5096244;28;20393;-78
2022/09/28 04:24:48;;;;;;;1.00;0.50;;;;;;;;;;5096139;28;20402;-77
2022/09/28 04:29:58;;;;;;;0.70;0.70;;;;;;;;;;5096078;28;20412;-81
2022/09/28 04:32:24;;;;;;;4.43;0.80;;;;;;;;;;5096014;28;20397;-80
2022/09/28 04:34:50;;;;;;;0.87;0.87;;;;;;;;;;5095885;28;20436;-81
2022/09/28 04:37:16;;;;;;;0.67;0.67;;;;;;;;;;5094668;28;20417;-82
2022/09/28 04:39:42;;;;;;;0.70;0.60;;;;;;;;;;5094479;28;20468;-82
2022/09/28 04:42:09;;;;;;;0.60;0.60;;;;;;;;;;5094525;28;20428;-82
2022/09/28 04:44:35;;;;;;;0.70;0.70;;;;;;;;;;5094472;28;20441;-81
2022/09/28 04:47:01;;;;;;;0.80;0.60;;;;;;;;;;5094269;28;20502;-81
2022/09/28 04:49:27;;;;;;;0.83;0.60;;;;;;;;;;5094374;28;20409;-82
2022/09/28 04:51:53;;;;;;;0.60;0.60;;;;;;;;;;5095623;28;20417;-82
2022/09/28 04:54:19;;;;;;;0.63;0.60;;;;;;;;;;5095426;28;20449;-82
2022/09/28 04:56:45;;;;;;;2.00;0.90;;;;;;;;;;5095589;28;20410;-81
2022/09/28 04:59:12;;;;;;;0.97;0.80;;;;;;;;;;5095427;28;20486;-84
2022/09/28 05:01:38;;;;;;;0.90;0.70;;;;;;;;;;5095480;28;20896;-78
2022/09/28 05:04:04;;;;;;;1.20;0.53;;;;;;;;;;5095411;28;20398;-82
2022/09/28 05:06:30;;;;;;;0.93;0.60;;;;;;;;;;5095356;28;20463;-81
2022/09/28 05:08:58;;;;;;;0.60;0.60;;;;;;;;;;5094111;28;20433;-82
2022/09/28 05:11:24;;;;;;;0.93;0.50;;;;;;;;;;5095194;28;20496;-82
2022/09/28 05:13:50;;;;;;;0.50;0.50;;;;;;;;;;5095145;28;20447;-79
2022/09/28 05:16:16;;;;;;;1.00;0.73;;;;;;;;;;5093788;28;20460;-79
2022/09/28 05:18:42;;;;;;;0.50;0.50;;;;;;;;;;5095121;28;20413;-82
2022/09/28 05:21:10;;;;;;;0.80;0.70;;;;;;;;;;5093887;28;20483;-81
2022/09/28 05:23:35;;;;;;;0.50;0.50;;;;;;;;;;5093583;28;20432;-80
2022/09/28 05:26:02;;;;;;;0.83;0.60;;;;;;;;;;5093649;28;20433;-80
2022/09/28 05:28:32;;;;;;;0.60;0.60;;;;;;;;;;5094828;28;20405;-80
2022/09/28 05:31:04;;;;;;;0.50;0.50;;;;;;;;;;5094866;28;20412;-77
2022/09/28 05:33:31;;;;;;;0.63;0.60;;;;;;;;;;5094768;28;20761;-82
2022/09/28 05:35:57;;;;;;;0.73;0.57;;;;;;;;;;5093443;28;20421;-81
2022/09/28 05:38:23;;;;;;;0.50;0.50;;;;;;;;;;5093658;28;20500;-82
2022/09/28 05:40:49;;;;;;;0.50;0.50;;;;;;;;;;5094586;28;20506;-81
2022/09/28 05:43:15;;;;;;;0.80;0.60;;;;;;;;;;5094567;28;20405;-80
2022/09/28 05:45:41;;;;;;;0.53;0.53;;;;;;;;;;5094476;28;20408;-83
2022/09/28 05:48:07;;;;;;;0.97;0.60;;;;;;;;;;5093318;28;20417;-82
2022/09/28 05:50:33;;;;;;;0.40;0.40;;;;;;;;;;5093227;28;20432;-82
2022/09/28 05:53:00;;;;;;;6.80;0.50;;;;;;;;;;5093204;28;20421;-81
2022/09/28 05:55:26;;;;;;;0.70;0.70;;;;;;;;;;5092856;28;20527;-81
2022/09/28 05:57:53;;;;;;;0.50;0.50;;;;;;;;;;5094299;28;20436;-81
2022/09/28 06:00:19;;;;;;;1.23;0.70;;;;;;;;;;5094219;28;20472;-81
2022/09/28 06:02:45;;;;;;;0.60;0.60;;;;;;;;;;5092976;28;20425;-80
2022/09/28 06:05:11;;;;;;;1.07;0.73;;;;;;;;;;5094211;28;20856;-80
2022/09/28 06:07:36;;;;;;;0.70;0.70;;;;;;;;;;5094198;28;20405;-81
2022/09/28 06:10:02;;;;;;;1.00;0.70;;;;;;;;;;5092841;28;20445;-80
2022/09/28 06:12:28;;;;;;;1.23;1.00;;;;;;;;;;5094019;28;20470;-80
2022/09/28 06:14:56;;;;;;;1.20;1.10;;;;;;;;;;5094038;28;20782;-80
2022/09/28 06:17:22;;;;;;;1.60;0.97;;;;;;;;;;5093958;28;20420;-81
2022/09/28 06:19:51;;;;;;;0.93;0.93;;;;;;;;;;5092323;28;20980;-81
2022/09/28 06:22:17;;;;;;;0.90;0.80;;;;;;;;;;5092578;28;20780;-81
2022/09/28 06:24:43;;;;;;;0.83;0.83;;;;;;;;;;5092678;28;20428;-81
2022/09/28 06:27:08;;;;;;;1.70;1.60;;;;;;;;;;5093951;28;20884;-81
2022/09/28 06:29:34;;;;;;;1.10;1.10;;;;;;;;;;5093951;28;20881;-81
2022/09/28 06:32:00;;;;;;;5.53;1.70;;;;;;;;;;5093948;28;20783;-81
2022/09/28 06:34:28;;;;;;;1.07;1.07;;;;;;;;;;5093782;28;20488;-79
2022/09/28 06:36:54;;;;;;;2.80;1.57;;;;;;;;;;5093823;28;20460;-80
2022/09/28 06:39:20;;;;;;;1.50;1.43;;;;;;;;;;5093689;28;20453;-79
2022/09/28 06:41:46;;;;;;;1.83;1.13;;;;;;;;;;5093781;28;20455;-78
2022/09/28 06:44:12;;;;;;;1.77;1.03;;;;;;;;;;5093662;28;20416;-78
2022/09/28 06:46:39;;;;;;;0.90;0.70;;;;;;;;;;5093722;28;20400;-78
2022/09/28 06:49:08;;;;;;;2.37;0.87;;;;;;;;;;5092335;28;20908;-78
2022/09/28 06:51:34;;;;;;;1.90;1.10;;;;;;;;;;5093643;28;20474;-78
2022/09/28 06:54:00;;;;;;;2.73;1.03;;;;;;;;;;5094194;28;20406;-79
2022/09/28 06:56:27;;;;;;;0.90;0.60;;;;;;;;;;5094822;28;20928;-79
2022/09/28 06:58:53;;;;;;;0.70;0.70;;;;;;;;;;5093250;28;20508;-79
2022/09/28 07:01:19;;;;;;;0.93;0.70;;;;;;;;;;5094624;28;20459;-76
2022/09/28 07:03:45;;;;;;;2.10;1.20;;;;;;;;;;5094730;28;20763;-78
2022/09/28 07:06:12;;;;;;;0.70;0.70;;;;;;;;;;5092937;28;20421;-80
2022/09/28 07:08:38;;;;;;;1.03;1.03;;;;;;;;;;5093987;28;20409;-79
2022/09/28 07:11:07;;;;;;;0.83;0.80;;;;;;;;;;5092691;28;20445;-78
2022/09/28 07:13:33;;;;;;;1.53;1.00;;;;;;;;;;5094108;28;20495;-76
2022/09/28 07:15:59;;;;;;;0.80;0.80;;;;;;;;;;5093870;28;20425;-79
2022/09/28 07:18:27;;;;;;;3.30;1.40;;;;;;;;;;5093841;28;20414;-83
2022/09/28 07:20:55;;;;;;;1.17;1.00;;;;;;;;;;5094386;28;20461;-84
2022/09/28 07:23:22;;;;;;;1.40;0.83;;;;;;;;;;5095049;28;20405;-78
2022/09/28 07:25:48;;;;;;;3.53;1.30;;;;;;;;;;5093891;28;20401;-82
2022/09/28 07:28:15;;;;;;;1.17;1.17;;;;;;;;;;5093433;28;20777;-77
2022/09/28 07:30:42;;;;;;;2.30;1.30;;;;;;;;;;5092296;28;20413;-75
2022/09/28 07:33:11;;;;;;;3.63;1.60;;;;;;;;;;5096035;28;20878;-74
2022/09/28 07:35:37;;;;;;;1.67;1.37;;;;;;;;;;5097178;28;20408;-74
2022/09/28 07:38:06;;;;;;;5.53;1.10;;;;;;;;;;5097137;28;20803;-73
2022/09/28 07:43:20;;;;;;;1.17;1.17;;;;;;;;;;5096933;28;20399;-75
2022/09/28 07:45:47;;;;;;;1.13;1.13;;;;;;;;;;5096841;28;20386;-74
2022/09/28 07:48:15;;;;;;;3.43;1.27;;;;;;;;;;5096856;28;20395;-78
2022/09/28 07:50:41;;;;;;;2.17;1.10;;;;;;;;;;5096834;28;20752;-76
2022/09/28 07:53:07;;;;;;;3.80;1.77;;;;;;;;;;5096796;28;20393;-80
2022/09/28 07:55:33;;;;;;;1.77;1.60;;;;;;;;;;5096595;28;20468;-77
2022/09/28 07:58:00;;;;;;;6.70;2.07;;;;;;;;;;5096638;28;20413;-75
2022/09/28 08:00:30;;;;;;;6.20;2.00;;;;;;;;;;5096529;28;20467;-81
2022/09/28 08:02:59;;;;;;;6.10;2.53;;;;;;;;;;5096581;28;20402;-79
2022/09/28 08:05:25;;;;;;;2.67;2.47;;;;;;;;;;5096596;28;20409;-78
2022/09/28 08:07:52;;;;;;;2.40;1.77;;;;;;;;;;5096688;28;20488;-77
2022/09/28 08:10:18;;;;;;;2.60;2.10;;;;;;;;;;5096491;28;20409;-77
2022/09/28 08:12:46;;;;;;;2.23;2.13;;;;;;;;;;5096331;28;20413;-76
2022/09/28 08:15:11;;;;;;;2.13;1.87;;;;;;;;;;5096195;28;20410;-78
2022/09/28 08:17:38;;;;;;;4.63;2.20;;;;;;;;;;5096378;28;20417;-77
2022/09/28 08:22:49;;;;;;;3.40;3.10;;;;;;;;;;5096479;28;20396;-85
2022/09/28 08:25:15;;;;;;;5.83;3.20;;;;;;;;;;5096234;28;20811;-78
2022/09/28 08:27:41;;;;;;;2.70;2.57;;;;;;;;;;5096060;28;20412;-84
2022/09/28 08:30:07;;;;;;;2.43;2.33;;;;;;;;;;5094822;28;20453;-81
2022/09/28 08:32:34;;;;;;;3.23;2.10;;;;;;;;;;5095932;28;20417;-82
2022/09/28 08:35:00;;;;;;;2.43;1.40;;;;;;;;;;5096047;28;20406;-83
2022/09/28 08:37:26;;;;;;;1.80;1.70;;;;;;;;;;5095972;28;20488;-79
2022/09/28 08:39:52;;;;;;;2.00;1.90;;;;;;;;;;5095811;28;21038;-76
2022/09/28 08:42:38;;;;;;;3.13;1.77;;;;;;;;;;5096092;28;20638;-80
2022/09/28 08:45:13;;;;;;;2.60;2.10;;;;;;;;;;5095746;28;20968;-80
2022/09/28 08:50:45;;;;;;;1.33;1.20;;;;;;;;;;5095595;28;20405;-78
2022/09/28 08:53:19;;;;;;;1.83;1.73;;;;;;;;;;5095568;28;20417;-78
2022/09/28 08:55:46;;;;;;;1.47;1.37;;;;;;;;;;5095257;28;20460;-78
2022/09/28 08:58:14;;;;;;;4.53;2.53;;;;;;;;;;5095301;28;20500;-78
2022/09/28 09:00:47;;;;;;;3.63;2.33;;;;;;;;;;5095265;28;21021;-78
2022/09/28 09:03:15;;;;;;;3.57;2.00;;;;;;;;;;5095375;28;20444;-78
2022/09/28 09:05:44;;;;;;;1.67;1.53;;;;;;;;;;5095416;28;20394;-76
2022/09/28 09:08:22;;;;;;;2.43;1.40;;;;;;;;;;5093999;28;20904;-78
2022/09/28 09:11:06;;;;;;;2.77;1.80;;;;;;;;;;5095283;28;20413;-77
2022/09/28 09:13:41;;;;;;;2.20;2.00;;;;;;;;;;5093864;28;20455;-80
2022/09/28 09:16:30;;;;;;;1.37;1.27;;;;;;;;;;5095262;28;20424;-82
2022/09/28 09:19:15;;;;;;;1.30;1.30;;;;;;;;;;5095104;28;20916;-81
2022/09/28 09:21:45;;;;;;;1.10;1.00;;;;;;;;;;5095069;28;20413;-78
2022/09/28 09:24:32;;;;;;;2.40;1.37;;;;;;;;;;5094971;28;20437;-78
2022/09/28 09:27:13;;;;;;;0.83;0.83;;;;;;;;;;5094996;28;20904;-77
2022/09/28 09:30:09;;;;;;;5.33;1.40;;;;;;;;;;5095034;28;20412;-73
2022/09/28 09:32:53;;;;;;;3.93;1.50;;;;;;;;;;5082331;28;20432;-78
2022/09/28 09:35:32;;;;;;;2.93;1.50;;;;;;;;;;5093379;28;20474;-76
2022/09/28 09:38:18;;;;;;;8.40;1.80;;;;;;;;;;5094771;28;20401;-78
2022/09/28 09:41:07;;;;;;;2.10;2.00;;;;;;;;;;5094598;28;20464;-79
2022/09/28 09:43:39;;;;;;;2.77;2.27;;;;;;;;;;5082792;28;20421;-80
2022/09/28 09:46:12;;;;;;;1.50;1.40;;;;;;;;;;5094616;28;20766;-80
2022/09/28 09:48:43;;;;;;;1.67;1.40;;;;;;;;;;5094592;28;20414;-80
2022/09/28 09:51:35;;;;;;;2.10;1.50;;;;;;;;;;5094553;28;20891;-79
2022/09/28 09:54:03;;;;;;;1.90;1.57;;;;;;;;;;5091387;28;20770;-78
2022/09/28 09:56:37;;;;;;;1.83;1.30;;;;;;;;;;5093547;28;20471;-78
2022/09/28 09:59:08;;;;;;;2.47;1.90;;;;;;;;;;5094109;28;20738;-78
2022/09/28 10:01:38;;;;;;;2.20;1.70;;;;;;;;;;5094292;28;20415;-77
2022/09/28 10:04:22;;;;;;;3.30;1.20;;;;;;;;;;5094319;28;20884;-77
2022/09/28 10:06:51;;;;;;;4.73;1.43;;;;;;;;;;5094134;28;20415;-78
2022/09/28 10:09:22;;;;;;;1.80;1.27;;;;;;;;;;5094261;28;20409;-78
2022/09/28 10:11:49;;;;;;;2.70;1.13;;;;;;;;;;5092863;28;20413;-78
2022/09/28 10:14:20;;;;;;;1.10;1.00;;;;;;;;;;5094073;28;20413;-78
2022/09/28 10:16:49;;;;;;;2.20;1.20;;;;;;;;;;5094005;28;20496;-79
2022/09/28 10:19:16;;;;;;;4.43;1.43;;;;;;;;;;5093953;28;20409;-77
2022/09/28 10:21:43;;;;;;;1.10;1.10;;;;;;;;;;5093992;28;20471;-76
2022/09/28 10:24:16;;;;;;;2.40;2.30;;;;;;;;;;5094016;28;20397;-74
2022/09/28 10:26:46;;;;;;;2.40;2.17;;;;;;;;;;5092646;28;20429;-76
2022/09/28 10:29:15;;;;;;;1.70;1.60;;;;;;;;;;5093814;28;20409;-76
2022/09/28 10:31:42;;;;;;;1.40;1.30;;;;;;;;;;5093797;28;20420;-77
2022/09/28 10:34:12;;;;;;;0.97;0.97;;;;;;;;;;5093859;28;20423;-73
2022/09/28 10:36:45;;;;;;;3.63;1.27;;;;;;;;;;5093996;28;20816;-73
2022/09/28 10:39:30;;;;;;;1.00;0.80;;;;;;;;;;5093772;28;20393;-73
2022/09/28 10:41:58;;;;;;;1.43;1.10;;;;;;;;;;5093749;28;20413;-77
2022/09/28 10:44:25;;;;;;;1.03;1.03;;;;;;;;;;5093612;28;20424;-74
2022/09/28 10:47:05;;;;;;;1.27;1.10;;;;;;;;;;5092460;28;20507;-74
2022/09/28 10:49:39;;;;;;;0.90;0.90;;;;;;;;;;5092356;28;20440;-74
2022/09/28 10:52:07;;;;;;;1.10;1.00;;;;;;;;;;5093612;28;20416;-74
2022/09/28 10:54:33;;;;;;;1.07;1.03;;;;;;;;;;5093523;28;20959;-75
2022/09/28 10:56:59;;;;;;;1.00;0.90;;;;;;;;;;5092353;28;20421;-74
2022/09/28 10:59:28;;;;;;;1.27;0.90;;;;;;;;;;5093790;28;20467;-76
2022/09/28 11:02:03;;;;;;;4.43;1.30;;;;;;;;;;5093548;28;20953;-76
2022/09/28 11:04:39;;;;;;;2.60;0.80;;;;;;;;;;5093572;28;20476;-74
2022/09/28 11:07:14;;;;;;;4.70;1.00;;;;;;;;;;5094305;28;20752;-75
2022/09/28 11:09:41;;;;;;;0.97;0.97;;;;;;;;;;5096361;28;20867;-76
2022/09/28 11:12:13;;;;;;;1.47;1.00;;;;;;;;;;5097582;28;20409;-79
2022/09/28 11:14:42;;;;;;;0.90;0.90;;;;;;;;;;5097593;28;20405;-74
2022/09/28 11:17:14;;;;;;;1.30;1.13;;;;;;;;;;5097831;28;20753;-76
2022/09/28 11:19:41;;;;;;;1.07;1.07;;;;;;;;;;5097297;28;20501;-78
2022/09/28 11:22:20;;;;;;;2.00;1.00;;;;;;;;;;5097369;28;20445;-77
2022/09/28 11:24:47;;;;;;;1.83;0.60;;;;;;;;;;5097256;28;20819;-77
2022/09/28 11:27:24;;;;;;;1.90;1.23;;;;;;;;;;5097223;28;20898;-75
2022/09/28 11:30:00;;;;;;;2.20;1.90;;;;;;;;;;5097265;28;20386;-80
2022/09/28 11:32:30;;;;;;;2.63;2.43;;;;;;;;;;5097180;28;20454;-75
2022/09/28 11:34:58;;;;;;;2.27;2.17;;;;;;;;;;5097197;28;20401;-77
2022/09/28 11:37:26;;;;;;;1.50;1.40;;;;;;;;;;5096696;28;20413;-79
2022/09/28 11:40:04;;;;;;;2.40;2.30;;;;;;;;;;5096369;28;20503;-75
2022/09/28 11:42:48;;;;;;;1.57;1.47;;;;;;;;;;5096440;28;20409;-75
2022/09/28 11:45:29;;;;;;;1.27;1.17;;;;;;;;;;5096776;28;20979;-74
2022/09/28 11:47:58;;;;;;;2.40;1.90;;;;;;;;;;5097046;28;20497;-75
2022/09/28 11:50:42;;;;;;;2.23;2.13;;;;;;;;;;5096872;28;20480;-74
2022/09/28 11:53:13;;;;;;;2.03;1.93;;;;;;;;;;5096753;28;20884;-74
2022/09/28 11:55:45;;;;;;;2.30;1.50;;;;;;;;;;5096586;28;20464;-73
2022/09/28 11:58:14;;;;;;;3.50;1.33;;;;;;;;;;5096668;28;20528;-75
2022/09/28 12:00:44;;;;;;;1.33;1.33;;;;;;;;;;5096629;28;20905;-74
2022/09/28 12:03:22;;;;;;;3.37;1.60;;;;;;;;;;5096701;28;20450;-75
2022/09/28 12:05:48;;;;;;;4.17;1.77;;;;;;;;;;5096578;28;20458;-76
2022/09/28 12:08:27;;;;;;;1.83;1.30;;;;;;;;;;5096549;28;20385;-74
2022/09/28 12:11:05;;;;;;;2.20;1.50;;;;;;;;;;5096436;28;20404;-76
2022/09/28 12:13:52;;;;;;;2.73;2.53;;;;;;;;;;5096400;28;20404;-73
2022/09/28 12:16:24;;;;;;;1.90;1.90;;;;;;;;;;5096409;28;20433;-74
2022/09/28 12:18:50;;;;;;;3.70;2.00;;;;;;;;;;5094462;28;20425;-74
2022/09/28 12:21:35;;;;;;;2.20;1.90;;;;;;;;;;5096211;28;20468;-75
2022/09/28 12:24:19;;;;;;;1.70;1.60;;;;;;;;;;5096152;28;20444;-76
2022/09/28 12:26:53;;;;;;;2.17;2.00;;;;;;;;;;5094882;28;20896;-75
2022/09/28 12:29:26;;;;;;;3.90;2.33;;;;;;;;;;5096062;28;20456;-75
2022/09/28 12:31:56;;;;;;;4.80;2.40;;;;;;;;;;5096115;28;20401;-74
2022/09/28 12:34:23;;;;;;;5.27;1.77;;;;;;;;;;5096059;28;20443;-76
2022/09/28 12:37:04;;;;;;;5.63;2.00;;;;;;;;;;5095942;28;20406;-73
2022/09/28 12:39:45;;;;;;;2.00;1.57;;;;;;;;;;5094543;28;20464;-75
2022/09/28 12:42:20;;;;;;;1.50;1.40;;;;;;;;;;5094607;28;20520;-77
2022/09/28 12:45:05;;;;;;;1.13;1.00;;;;;;;;;;5095849;28;20407;-76
2022/09/28 12:47:31;;;;;;;1.83;1.73;;;;;;;;;;5095733;28;20470;-74
2022/09/28 12:49:57;;;;;;;3.87;2.10;;;;;;;;;;5094427;28;20409;-74
2022/09/28 12:52:23;;;;;;;5.30;2.10;;;;;;;;;;5095617;28;20458;-74
2022/09/28 12:54:58;;;;;;;2.73;1.90;;;;;;;;;;5095457;28;20460;-75
2022/09/28 12:57:35;;;;;;;3.00;1.80;;;;;;;;;;5095609;28;20431;-75
2022/09/28 13:00:03;;;;;;;4.93;1.77;;;;;;;;;;5095445;28;20544;-76
2022/09/28 13:02:38;;;;;;;4.50;1.80;;;;;;;;;;5095483;28;20397;-75
2022/09/28 13:05:07;;;;;;;2.17;1.97;;;;;;;;;;5095497;28;20471;-75
2022/09/28 13:07:39;;;;;;;4.93;2.20;;;;;;;;;;5095605;28;20397;-75
2022/09/28 13:10:05;;;;;;;7.30;2.40;;;;;;;;;;5095569;28;20747;-76
2022/09/28 13:12:49;;;;;;;3.27;2.10;;;;;;;;;;5095216;28;20405;-75
2022/09/28 13:15:26;;;;;;;2.90;2.13;;;;;;;;;;5095328;28;20880;-75
2022/09/28 13:18:06;;;;;;;4.23;2.10;;;;;;;;;;5093908;28;20420;-75
2022/09/28 13:20:32;;;;;;;2.70;2.50;;;;;;;;;;5095037;28;20563;-75
2022/09/28 13:23:19;;;;;;;4.97;2.70;;;;;;;;;;5095105;28;20436;-75
2022/09/28 13:25:57;;;;;;;2.53;2.27;;;;;;;;;;5095018;28;20778;-76
2022/09/28 13:28:24;;;;;;;2.33;2.13;;;;;;;;;;5094919;28;20413;-77
2022/09/28 13:30:51;;;;;;;5.20;2.67;;;;;;;;;;5094024;28;20412;-77
2022/09/28 13:33:21;;;;;;;3.13;1.80;;;;;;;;;;5094848;28;20764;-75
2022/09/28 13:35:47;;;;;;;4.17;1.80;;;;;;;;;;5094739;28;20409;-75
2022/09/28 13:38:29;;;;;;;1.70;1.70;;;;;;;;;;5094785;28;20743;-76
2022/09/28 13:41:04;;;;;;;2.70;2.50;;;;;;;;;;5094740;28;20551;-75
2022/09/28 13:43:47;;;;;;;3.97;2.57;;;;;;;;;;5094604;28;20408;-75
2022/09/28 13:46:42;;;;;;;2.60;1.80;;;;;;;;;;5094645;28;20409;-76
2022/09/28 13:49:16;;;;;;;4.07;2.10;;;;;;;;;;5081675;28;20917;-76
2022/09/28 13:52:01;;;;;;;2.57;2.23;;;;;;;;;;5094477;28;20393;-75
2022/09/28 13:54:30;;;;;;;2.70;2.37;;;;;;;;;;5094338;28;20461;-75
2022/09/28 13:57:02;;;;;;;1.17;1.17;;;;;;;;;;5094451;28;20787;-76
2022/09/28 13:59:29;;;;;;;1.87;1.70;;;;;;;;;;5094299;28;20487;-75
2022/09/28 14:02:02;;;;;;;2.17;1.87;;;;;;;;;;5094418;28;20780;-76
2022/09/28 14:04:47;;;;;;;2.00;1.80;;;;;;;;;;5094332;28;20750;-76
2022/09/28 14:07:32;;;;;;;2.43;2.33;;;;;;;;;;5093002;28;20421;-76
2022/09/28 14:10:15;;;;;;;1.80;1.70;;;;;;;;;;5094073;28;20434;-76
2022/09/28 14:12:41;;;;;;;1.73;1.63;;;;;;;;;;5094129;28;20466;-76
2022/09/28 14:15:30;;;;;;;2.10;1.40;;;;;;;;;;5094100;28;20397;-76
2022/09/28 14:18:07;;;;;;;2.80;1.50;;;;;;;;;;5093968;28;20425;-76
2022/09/28 14:20:34;;;;;;;3.30;1.80;;;;;;;;;;5093983;28;20982;-76
2022/09/28 14:23:04;;;;;;;2.00;1.90;;;;;;;;;;5092764;28;20444;-76
2022/09/28 14:25:31;;;;;;;2.63;1.87;;;;;;;;;;5093929;28;20430;-76
2022/09/28 14:28:06;;;;;;;4.10;3.80;;;;;;;;;;5093880;28;20470;-76
2022/09/28 14:30:41;;;;;;;3.10;2.20;;;;;;;;;;5093802;28;20889;-76
2022/09/28 14:33:17;;;;;;;3.13;1.50;;;;;;;;;;5093748;28;20401;-76
2022/09/28 14:35:45;;;;;;;2.03;1.83;;;;;;;;;;5092509;28;20421;-76
2022/09/28 14:41:16;;;;;;;2.73;2.37;;;;;;;;;;5093531;28;20514;-76
2022/09/28 14:43:45;;;;;;;2.37;2.27;;;;;;;;;;5093691;28;20405;-76
2022/09/28 14:46:14;;;;;;;2.60;1.80;;;;;;;;;;5093788;28;20453;-75
2022/09/28 14:49:02;;;;;;;5.70;2.30;;;;;;;;;;5093852;28;20484;-76
2022/09/28 14:51:33;;;;;;;3.70;3.40;;;;;;;;;;5092322;28;20420;-76
2022/09/28 14:54:00;;;;;;;3.83;2.70;;;;;;;;;;5093651;28;20467;-76
2022/09/28 14:56:31;;;;;;;8.47;6.00;;;;;;;;;;5093432;28;20955;-76
2022/09/28 14:58:57;;;;;;;5.77;4.17;;;;;;;;;;5093612;28;20441;-77
2022/09/28 15:01:24;;;;;;;6.30;5.80;;;;;;;;;;5093450;28;20475;-76
2022/09/28 15:03:58;;;;;;;8.00;5.80;;;;;;;;;;5093848;28;20764;-76
2022/09/28 15:06:27;;;;;;;6.33;5.83;;;;;;;;;;5093457;28;20409;-76
2022/09/28 15:08:53;;;;;;;4.50;3.10;;;;;;;;;;5092065;28;20524;-76
2022/09/28 15:11:21;;;;;;;5.80;3.80;;;;;;;;;;5093504;28;20479;-76
2022/09/28 15:13:48;;;;;;;3.20;2.90;;;;;;;;;;5092112;28;20417;-76
2022/09/28 15:16:22;;;;;;;4.20;3.00;;;;;;;;;;5093475;28;20409;-76